Time;durP1;ratioP1;P1;durP2;ratioP2;P2;SDS_P1;SDS_P2;PMS_P1;PMS_P2;Temp;Humidity;BMP_temperature;BMP_pressure;BME280_temperature;BME280_humidity;BME280_pressure;Samples;Min_cycle;Max_cycle;Signal;HPM_P1;HPM_P2
2022/10/24 00:02:18;;;;;;;61.10;3.30;;;20.40;1.00;;;;;;5072132;28;20819;-74
2022/10/24 00:04:45;;;;;;;59.40;2.93;;;20.50;1.00;;;;;;5072058;28;20530;-74
2022/10/24 00:07:12;;;;;;;60.03;3.00;;;20.30;1.00;;;;;;5071891;28;20471;-74
2022/10/24 00:09:39;;;;;;;60.27;3.00;;;20.10;1.00;;;;;;5071418;28;20924;-74
2022/10/24 00:12:07;;;;;;;59.50;3.80;;;20.30;1.00;;;;;;5071874;28;20447;-74
2022/10/24 00:14:36;;;;;;;62.10;3.57;;;20.00;1.00;;;;;;5071630;28;20447;-74
2022/10/24 00:17:02;;;;;;;66.20;3.43;;;19.90;1.00;;;;;;5071899;28;20632;-74
2022/10/24 00:19:31;;;;;;;60.30;3.07;;;19.90;1.00;;;;;;5071325;28;20626;-74
2022/10/24 00:21:57;;;;;;;62.00;3.30;;;19.90;1.00;;;;;;5071789;28;20454;-74
2022/10/24 00:24:24;;;;;;;59.60;2.93;;;19.80;1.00;;;;;;5071668;28;20990;-74
2022/10/24 00:26:52;;;;;;;62.90;3.30;;;19.80;1.00;;;;;;5071538;28;20979;-74
2022/10/24 00:29:19;;;;;;;64.23;3.20;;;19.70;1.00;;;;;;5071474;28;20447;-74
2022/10/24 00:31:46;;;;;;;58.90;2.87;;;19.50;1.00;;;;;;5071240;28;20944;-74
2022/10/24 00:34:12;;;;;;;61.00;3.50;;;19.70;1.00;;;;;;5071724;28;20451;-74
2022/10/24 00:36:40;;;;;;;61.50;3.60;;;19.80;1.00;;;;;;5071560;28;20470;-74
2022/10/24 00:39:07;;;;;;;60.00;2.93;;;19.80;1.00;;;;;;5071130;28;20566;-74
2022/10/24 00:41:37;;;;;;;61.30;3.80;;;19.60;1.00;;;;;;5071405;28;20443;-74
2022/10/24 00:44:16;;;;;;;65.10;3.50;;;19.50;1.00;;;;;;5071325;28;20448;-74
2022/10/24 00:46:46;;;;;;;61.30;3.30;;;19.20;1.00;;;;;;5071789;28;20469;-74
2022/10/24 00:49:15;;;;;;;64.20;3.30;;;18.90;1.00;;;;;;5071197;28;20439;-74
2022/10/24 00:51:43;;;;;;;61.20;3.87;;;19.00;1.00;;;;;;5071355;28;20960;-74
2022/10/24 00:54:14;;;;;;;62.57;3.50;;;19.00;1.00;;;;;;5071284;28;20454;-74
2022/10/24 00:56:45;;;;;;;61.33;3.63;;;19.00;1.00;;;;;;5071496;28;20470;-74
2022/10/24 00:59:14;;;;;;;63.80;3.80;;;19.10;1.00;;;;;;5070830;28;20485;-74
2022/10/24 01:01:43;;;;;;;63.50;3.40;;;19.20;1.00;;;;;;5071426;28;20800;-74
2022/10/24 01:04:11;;;;;;;63.73;3.90;;;19.30;1.00;;;;;;5071317;28;20478;-74
2022/10/24 01:06:50;;;;;;;59.60;3.43;;;19.10;1.00;;;;;;5071016;28;20471;-74
2022/10/24 01:09:36;;;;;;;59.77;3.10;;;19.20;1.00;;;;;;5071119;28;20451;-74
2022/10/24 01:12:11;;;;;;;59.73;3.27;;;19.10;1.00;;;;;;5071299;28;20470;-74
2022/10/24 01:14:50;;;;;;;63.70;4.33;;;19.00;1.00;;;;;;5071166;28;20939;-74
2022/10/24 01:17:22;;;;;;;64.77;4.10;;;18.80;1.00;;;;;;5071035;28;20471;-74
2022/10/24 01:20:29;;;;;;;60.73;3.67;;;18.80;1.00;;;;;;5070946;28;20483;-74
2022/10/24 01:23:14;;;;;;;65.93;4.07;;;18.70;1.00;;;;;;5040900;28;20453;-74
2022/10/24 01:25:53;;;;;;;60.30;3.33;;;18.30;1.00;;;;;;5070946;28;20462;-74
2022/10/24 01:28:24;;;;;;;62.43;3.53;;;18.70;1.00;;;;;;5071142;28;20454;-74
2022/10/24 01:30:57;;;;;;;62.37;3.60;;;18.80;1.00;;;;;;5070695;28;20448;-74
2022/10/24 01:33:30;;;;;;;63.23;3.93;;;18.90;1.00;;;;;;5071090;28;20469;-74
2022/10/24 01:36:05;;;;;;;61.70;3.93;;;19.10;1.00;;;;;;5069352;28;20443;-74
2022/10/24 01:38:35;;;;;;;64.10;3.93;;;19.20;1.00;;;;;;5070995;28;20928;-74
2022/10/24 01:41:06;;;;;;;61.37;3.60;;;19.30;1.00;;;;;;5070901;28;20505;-74
2022/10/24 01:43:37;;;;;;;65.53;4.03;;;19.40;1.00;;;;;;5071125;28;20458;-74
2022/10/24 01:46:08;;;;;;;60.60;3.60;;;19.50;1.00;;;;;;5074775;28;20473;-74
2022/10/24 01:48:40;;;;;;;60.07;3.40;;;19.40;1.00;;;;;;5074154;28;20457;-74
2022/10/24 01:51:08;;;;;;;61.87;3.10;;;19.50;1.00;;;;;;5074433;28;20439;-74
2022/10/24 01:53:35;;;;;;;59.90;3.73;;;19.40;1.00;;;;;;5074304;28;20451;-74
2022/10/24 01:56:02;;;;;;;62.73;3.87;;;19.30;1.00;;;;;;5074085;28;20470;-74
2022/10/24 01:58:29;;;;;;;60.40;3.90;;;19.30;1.00;;;;;;5074190;28;20464;-74
2022/10/24 02:01:01;;;;;;;61.30;3.97;;;19.10;1.00;;;;;;5074198;28;20486;-74
2022/10/24 02:03:34;;;;;;;63.40;4.20;;;19.10;1.00;;;;;;5074154;28;20816;-74
2022/10/24 02:06:07;;;;;;;62.33;4.10;;;19.00;1.00;;;;;;5074107;28;20471;-74
2022/10/24 02:08:41;;;;;;;62.27;4.27;;;18.90;1.00;;;;;;5074188;28;20477;-74
2022/10/24 02:11:09;;;;;;;60.37;3.83;;;18.70;1.00;;;;;;5073964;28;20752;-74
2022/10/24 02:13:43;;;;;;;61.53;3.40;;;18.70;1.00;;;;;;5074102;28;20805;-74
2022/10/24 02:16:11;;;;;;;59.73;3.77;;;18.60;1.00;;;;;;5074359;28;20470;-74
2022/10/24 02:18:40;;;;;;;61.37;3.97;;;18.30;1.00;;;;;;5073465;28;20451;-74
2022/10/24 02:21:15;;;;;;;63.23;3.63;;;17.90;1.00;;;;;;5073557;28;20486;-74
2022/10/24 02:23:52;;;;;;;61.37;3.77;;;17.70;1.00;;;;;;5073784;28;20457;-73
2022/10/24 02:26:24;;;;;;;61.00;3.40;;;17.70;1.00;;;;;;5073824;28;20541;-74
2022/10/24 02:28:54;;;;;;;62.97;3.97;;;18.00;1.00;;;;;;5073394;28;20458;-74
2022/10/24 02:31:25;;;;;;;61.70;3.90;;;18.30;1.00;;;;;;5073654;28;20446;-74
2022/10/24 02:33:54;;;;;;;61.70;3.87;;;18.40;1.00;;;;;;5073969;28;20455;-74
2022/10/24 02:36:27;;;;;;;63.07;4.20;;;18.30;1.00;;;;;;5073638;28;20983;-73
2022/10/24 02:38:55;;;;;;;61.20;3.70;;;18.60;1.00;;;;;;5073307;28;20455;-74
2022/10/24 02:41:25;;;;;;;61.60;4.03;;;18.40;1.00;;;;;;5073395;28;20510;-74
2022/10/24 02:43:53;;;;;;;63.40;4.00;;;18.30;1.00;;;;;;5073412;28;20447;-74
2022/10/24 02:46:21;;;;;;;62.37;3.80;;;18.30;1.00;;;;;;5073105;28;20486;-73
2022/10/24 02:48:52;;;;;;;63.00;4.00;;;18.30;1.00;;;;;;5073108;28;20458;-74
2022/10/24 02:51:22;;;;;;;62.30;4.63;;;18.30;1.00;;;;;;5073145;28;20454;-74
2022/10/24 02:53:50;;;;;;;64.50;4.17;;;18.40;1.00;;;;;;5073085;28;20833;-74
2022/10/24 02:56:17;;;;;;;64.73;4.10;;;18.30;1.00;;;;;;5072869;28;20471;-74
2022/10/24 02:58:44;;;;;;;63.67;4.77;;;18.30;1.00;;;;;;5072602;28;20458;-74
2022/10/24 03:01:11;;;;;;;65.13;4.10;;;18.50;1.00;;;;;;5072921;28;20483;-74
2022/10/24 03:03:38;;;;;;;64.27;4.87;;;18.60;1.00;;;;;;5073121;28;20447;-73
2022/10/24 03:06:05;;;;;;;65.23;4.60;;;18.50;1.00;;;;;;5072947;28;20475;-74
2022/10/24 03:08:33;;;;;;;62.27;4.30;;;18.40;1.00;;;;;;5072766;28;20959;-74
2022/10/24 03:11:00;;;;;;;63.63;4.20;;;18.40;1.00;;;;;;5073028;28;20475;-73
2022/10/24 03:13:27;;;;;;;65.50;5.00;;;18.40;1.00;;;;;;5073532;28;20470;-74
2022/10/24 03:15:53;;;;;;;62.40;4.23;;;18.40;1.00;;;;;;5073223;28;20455;-73
2022/10/24 03:18:20;;;;;;;64.67;4.73;;;18.40;1.00;;;;;;5073109;28;20947;-73
2022/10/24 03:20:47;;;;;;;62.40;4.10;;;18.40;1.00;;;;;;5072743;28;20479;-73
2022/10/24 03:23:15;;;;;;;64.80;5.10;;;18.40;1.00;;;;;;5072768;28;20478;-73
2022/10/24 03:25:43;;;;;;;62.40;4.37;;;18.30;1.00;;;;;;5072337;28;20451;-73
2022/10/24 03:28:10;;;;;;;68.93;4.57;;;18.40;1.00;;;;;;5072331;28;20973;-74
2022/10/24 03:30:36;;;;;;;62.37;4.83;;;18.30;1.00;;;;;;5072626;28;20443;-74
2022/10/24 03:33:03;;;;;;;68.53;4.73;;;18.30;1.00;;;;;;5072962;28;20451;-74
2022/10/24 03:35:30;;;;;;;72.23;4.67;;;18.30;1.00;;;;;;5072717;28;20455;-73
2022/10/24 03:37:57;;;;;;;63.87;4.70;;;18.30;1.00;;;;;;5072425;28;20983;-74
2022/10/24 03:40:24;;;;;;;62.70;4.50;;;18.30;1.00;;;;;;5072657;28;20574;-74
2022/10/24 03:42:52;;;;;;;64.97;4.37;;;18.30;1.00;;;;;;5072311;28;20443;-74
2022/10/24 03:45:19;;;;;;;64.10;4.50;;;18.20;1.00;;;;;;5072432;28;20447;-74
2022/10/24 03:47:46;;;;;;;61.77;4.30;;;18.20;1.00;;;;;;5072349;28;20467;-74
2022/10/24 03:50:12;;;;;;;64.70;5.03;;;18.30;1.00;;;;;;5072011;28;20458;-74
2022/10/24 03:52:39;;;;;;;60.93;4.30;;;18.30;1.00;;;;;;5072142;28;20458;-74
2022/10/24 03:55:07;;;;;;;63.07;4.70;;;18.30;1.00;;;;;;5072139;28;20830;-74
2022/10/24 03:57:34;;;;;;;63.10;5.13;;;18.20;1.00;;;;;;5072278;28;20491;-74
2022/10/24 04:00:02;;;;;;;62.67;4.87;;;18.20;1.00;;;;;;5071712;28;20857;-73
2022/10/24 04:02:29;;;;;;;62.93;4.80;;;18.20;1.00;;;;;;5072086;28;20449;-73
2022/10/24 04:04:55;;;;;;;65.27;4.40;;;18.20;1.00;;;;;;5072005;28;20451;-73
2022/10/24 04:07:22;;;;;;;66.33;4.00;;;18.20;1.00;;;;;;5071240;28;20481;-73
2022/10/24 04:09:49;;;;;;;65.97;5.50;;;18.30;1.00;;;;;;5071551;28;20946;-73
2022/10/24 04:12:16;;;;;;;62.97;5.30;;;18.20;1.00;;;;;;5071728;28;20448;-73
2022/10/24 04:14:42;;;;;;;63.17;5.10;;;18.30;1.00;;;;;;5071845;28;20448;-73
2022/10/24 04:17:10;;;;;;;65.20;5.47;;;18.60;1.00;;;;;;5071482;28;20984;-73
2022/10/24 04:19:37;;;;;;;64.40;4.93;;;18.40;1.00;;;;;;5071282;28;20463;-73
2022/10/24 04:22:04;;;;;;;62.80;5.23;;;18.20;1.00;;;;;;5071560;28;20483;-73
2022/10/24 04:24:31;;;;;;;63.00;5.77;;;18.30;1.00;;;;;;5071761;28;20456;-73
2022/10/24 04:26:58;;;;;;;62.70;4.40;;;18.30;1.00;;;;;;5071734;28;20470;-73
2022/10/24 04:29:25;;;;;;;70.47;4.57;;;18.70;1.00;;;;;;5071387;28;20454;-73
2022/10/24 04:31:51;;;;;;;63.87;4.80;;;19.00;1.00;;;;;;5071637;28;20824;-73
2022/10/24 04:34:19;;;;;;;69.10;4.67;;;19.20;1.00;;;;;;5071949;28;20447;-73
2022/10/24 04:36:46;;;;;;;62.67;4.80;;;19.00;1.00;;;;;;5071865;28;20475;-73
2022/10/24 04:39:13;;;;;;;66.07;4.97;;;19.00;1.00;;;;;;5071246;28;20455;-73
2022/10/24 04:41:40;;;;;;;64.07;5.23;;;18.60;1.00;;;;;;5071394;28;20479;-73
2022/10/24 04:44:07;;;;;;;61.13;4.33;;;18.30;1.00;;;;;;5071507;28;20452;-73
2022/10/24 04:46:34;;;;;;;67.03;5.67;;;18.40;1.00;;;;;;5071310;28;20995;-73
2022/10/24 04:49:01;;;;;;;61.00;4.63;;;18.70;1.00;;;;;;5070935;28;20449;-74
2022/10/24 04:51:29;;;;;;;69.33;5.30;;;18.80;1.00;;;;;;5071442;28;20939;-73
2022/10/24 04:53:56;;;;;;;62.70;4.83;;;18.50;1.00;;;;;;5071333;28;20443;-73
2022/10/24 04:56:24;;;;;;;64.90;4.73;;;18.80;1.00;;;;;;5071402;28;20468;-74
2022/10/24 04:58:51;;;;;;;67.53;4.70;;;19.00;1.00;;;;;;5070993;28;20454;-74
2022/10/24 05:01:18;;;;;;;69.80;5.17;;;19.10;1.00;;;;;;5071252;28;20482;-74
2022/10/24 05:03:45;;;;;;;67.37;5.47;;;18.70;1.00;;;;;;5071173;28;20444;-73
2022/10/24 05:06:12;;;;;;;60.57;4.20;;;18.70;1.00;;;;;;5070837;28;20467;-73
2022/10/24 05:08:40;;;;;;;64.23;4.70;;;18.40;1.00;;;;;;5070749;28;20465;-74
2022/10/24 05:11:08;;;;;;;64.23;5.00;;;18.30;1.00;;;;;;5071265;28;20443;-73
2022/10/24 05:13:35;;;;;;;65.60;5.00;;;18.20;1.00;;;;;;5071163;28;20549;-74
2022/10/24 05:16:02;;;;;;;64.37;5.10;;;18.30;1.00;;;;;;5070877;28;20764;-73
2022/10/24 05:18:31;;;;;;;62.00;4.40;;;18.20;1.00;;;;;;5071326;28;20462;-73
2022/10/24 05:20:58;;;;;;;65.67;4.43;;;18.20;1.00;;;;;;5074942;28;20483;-73
2022/10/24 05:23:25;;;;;;;61.80;4.87;;;18.30;1.00;;;;;;5074833;28;20981;-73
2022/10/24 05:25:54;;;;;;;67.00;4.93;;;18.20;1.00;;;;;;5074684;28;20447;-73
2022/10/24 05:28:21;;;;;;;62.73;4.67;;;18.20;1.00;;;;;;5074412;28;20843;-73
2022/10/24 05:30:47;;;;;;;61.20;4.97;;;18.20;1.00;;;;;;5074346;28;21035;-72
2022/10/24 05:33:14;;;;;;;65.13;4.53;;;18.30;1.00;;;;;;5074775;28;20455;-73
2022/10/24 05:35:42;;;;;;;64.00;4.27;;;18.40;1.00;;;;;;5074678;28;20447;-73
2022/10/24 05:38:09;;;;;;;62.77;4.23;;;18.40;1.00;;;;;;5074837;28;20812;-72
2022/10/24 05:40:36;;;;;;;65.60;5.47;;;18.40;1.00;;;;;;5074265;28;20505;-73
2022/10/24 05:43:04;;;;;;;66.27;4.40;;;18.40;1.00;;;;;;5074640;28;20474;-73
2022/10/24 05:45:31;;;;;;;62.13;4.23;;;18.40;1.00;;;;;;5074445;28;20454;-73
2022/10/24 05:47:58;;;;;;;62.30;5.33;;;18.20;1.00;;;;;;5074574;28;20482;-73
2022/10/24 05:50:25;;;;;;;71.17;4.07;;;18.10;1.00;;;;;;5074218;28;20820;-73
2022/10/24 05:52:52;;;;;;;64.33;4.27;;;18.00;1.00;;;;;;5074435;28;20451;-73
2022/10/24 05:55:19;;;;;;;69.37;5.17;;;18.00;1.00;;;;;;5074391;28;20454;-72
2022/10/24 05:57:46;;;;;;;64.50;5.07;;;17.90;1.00;;;;;;5074122;28;20467;-73
2022/10/24 06:00:16;;;;;;;61.50;4.77;;;18.00;1.00;;;;;;5074106;28;20505;-72
2022/10/24 06:02:43;;;;;;;63.30;4.50;;;18.00;1.00;;;;;;5074279;28;20936;-73
2022/10/24 06:05:11;;;;;;;67.53;4.67;;;18.00;1.00;;;;;;5074401;28;20450;-73
2022/10/24 06:07:38;;;;;;;60.67;4.17;;;18.30;1.00;;;;;;5074016;28;20479;-73
2022/10/24 06:10:06;;;;;;;66.47;4.97;;;18.30;1.00;;;;;;5073775;28;20436;-73
2022/10/24 06:12:34;;;;;;;64.07;4.77;;;18.20;1.00;;;;;;5074098;28;20455;-73
2022/10/24 06:15:02;;;;;;;63.00;4.73;;;18.20;1.00;;;;;;5074391;28;20470;-74
2022/10/24 06:17:30;;;;;;;63.73;4.97;;;18.10;1.00;;;;;;5073709;28;20468;-75
2022/10/24 06:19:57;;;;;;;62.80;5.83;;;18.10;1.00;;;;;;5073317;28;20470;-74
2022/10/24 06:22:26;;;;;;;62.47;5.20;;;18.20;1.00;;;;;;5073914;28;20513;-73
2022/10/24 06:24:53;;;;;;;65.67;5.80;;;17.70;1.00;;;;;;5073594;28;20451;-73
2022/10/24 06:27:20;;;;;;;73.03;5.83;;;17.60;1.00;;;;;;5073522;28;21006;-73
2022/10/24 06:29:47;;;;;;;61.93;4.83;;;17.00;1.00;;;;;;5072921;28;20455;-73
2022/10/24 06:32:13;;;;;;;64.87;5.70;;;16.70;1.00;;;;;;5073945;28;20835;-74
2022/10/24 06:34:41;;;;;;;63.60;5.47;;;16.50;1.00;;;;;;5073773;28;20483;-73
2022/10/24 06:37:08;;;;;;;65.83;5.20;;;16.80;1.00;;;;;;5073505;28;20489;-74
2022/10/24 06:39:35;;;;;;;62.17;5.00;;;17.20;1.00;;;;;;5073287;28;20448;-74
2022/10/24 06:42:02;;;;;;;63.23;4.90;;;17.50;1.00;;;;;;5073631;28;20487;-73
2022/10/24 06:44:29;;;;;;;65.70;5.33;;;17.80;1.00;;;;;;5073510;28;20447;-74
2022/10/24 06:46:56;;;;;;;65.90;5.80;;;17.90;1.00;;;;;;5073405;28;20469;-73
2022/10/24 06:49:23;;;;;;;66.33;5.03;;;18.00;1.00;;;;;;5073259;28;20452;-74
2022/10/24 06:51:51;;;;;;;66.70;7.70;;;17.90;1.00;;;;;;5073271;28;20443;-74
2022/10/24 06:54:18;;;;;;;69.70;5.93;;;18.00;1.00;;;;;;5073124;28;20451;-74
2022/10/24 06:56:45;;;;;;;63.27;5.80;;;18.10;1.00;;;;;;5073264;28;20472;-74
2022/10/24 06:59:14;;;;;;;68.87;6.00;;;18.10;1.00;;;;;;5072907;28;20447;-74
2022/10/24 07:01:42;;;;;;;67.90;6.10;;;18.10;1.00;;;;;;5073115;28;20479;-76
2022/10/24 07:04:10;;;;;;;64.23;5.90;;;17.90;1.00;;;;;;5073052;28;20443;-74
2022/10/24 07:06:37;;;;;;;65.00;5.33;;;17.80;1.00;;;;;;5072984;28;20475;-74
2022/10/24 07:09:06;;;;;;;65.70;5.27;;;17.80;1.00;;;;;;5072849;28;20483;-74
2022/10/24 07:11:33;;;;;;;68.90;6.47;;;17.80;1.00;;;;;;5074120;28;20455;-75
2022/10/24 07:14:00;;;;;;;68.00;5.83;;;17.90;1.00;;;;;;5072971;28;20451;-76
2022/10/24 07:16:26;;;;;;;65.73;6.40;;;17.90;1.00;;;;;;5072926;28;20467;-74
2022/10/24 07:18:53;;;;;;;66.50;6.43;;;17.90;1.00;;;;;;5072228;28;20534;-74
2022/10/24 07:21:22;;;;;;;62.67;5.40;;;18.00;1.00;;;;;;5072746;28;20491;-75
2022/10/24 07:23:51;;;;;;;65.20;5.57;;;17.80;1.00;;;;;;5072726;28;20896;-74
2022/10/24 07:26:22;;;;;;;64.80;5.77;;;17.50;1.00;;;;;;5072822;28;20460;-76
2022/10/24 07:28:52;;;;;;;65.50;5.60;;;17.50;1.00;;;;;;5071896;28;20458;-75
2022/10/24 07:31:20;;;;;;;65.80;5.80;;;17.40;1.00;;;;;;5072516;28;20444;-74
2022/10/24 07:33:47;;;;;;;67.03;6.10;;;17.50;1.00;;;;;;5072341;28;20931;-74
2022/10/24 07:36:17;;;;;;;67.13;5.53;;;17.50;1.00;;;;;;5072531;28;20478;-74
2022/10/24 07:38:44;;;;;;;63.50;5.30;;;17.60;1.00;;;;;;5072439;28;20516;-74
2022/10/24 07:41:11;;;;;;;69.70;6.90;;;17.80;1.00;;;;;;5071679;28;20580;-74
2022/10/24 07:43:39;;;;;;;67.27;6.57;;;18.10;1.00;;;;;;5072152;28;20461;-74
2022/10/24 07:46:07;;;;;;;66.53;5.90;;;18.30;1.00;;;;;;5072059;28;20482;-74
2022/10/24 07:48:34;;;;;;;65.97;5.83;;;18.40;1.00;;;;;;5071956;28;20457;-74
2022/10/24 07:51:05;;;;;;;67.23;6.10;;;18.50;1.00;;;;;;5072300;28;20451;-75
2022/10/24 07:53:32;;;;;;;75.73;7.67;;;18.50;1.00;;;;;;5072208;28;20931;-75
2022/10/24 07:55:59;;;;;;;65.63;6.47;;;18.50;1.00;;;;;;5071969;28;20458;-75
2022/10/24 07:58:26;;;;;;;69.67;6.73;;;18.50;1.00;;;;;;5071837;28;20451;-75
2022/10/24 08:00:55;;;;;;;66.90;6.90;;;18.30;1.00;;;;;;5071856;28;20458;-74
2022/10/24 08:03:22;;;;;;;66.80;5.80;;;18.10;1.00;;;;;;5072189;28;20444;-75
2022/10/24 08:05:49;;;;;;;63.80;5.67;;;17.70;1.00;;;;;;5072026;28;20446;-74
2022/10/24 08:08:16;;;;;;;65.93;6.97;;;17.50;1.00;;;;;;5071904;28;20448;-75
2022/10/24 08:10:42;;;;;;;67.00;5.97;;;17.10;1.00;;;;;;5071881;28;20454;-74
2022/10/24 08:13:09;;;;;;;66.83;5.53;;;16.90;1.00;;;;;;5071716;28;20443;-75
2022/10/24 08:15:37;;;;;;;63.10;5.30;;;16.80;1.00;;;;;;5071874;28;20451;-74
2022/10/24 08:18:05;;;;;;;67.23;6.03;;;16.90;1.00;;;;;;5071813;28;20463;-75
2022/10/24 08:20:32;;;;;;;65.17;6.10;;;16.80;1.00;;;;;;5071762;28;20455;-75
2022/10/24 08:22:59;;;;;;;63.90;6.00;;;16.60;1.00;;;;;;5071736;28;20482;-75
2022/10/24 08:25:26;;;;;;;63.87;4.83;;;16.30;1.00;;;;;;5071690;28;20493;-75
2022/10/24 08:27:52;;;;;;;62.40;4.20;;;16.20;1.00;;;;;;5071733;28;20473;-76
2022/10/24 08:30:20;;;;;;;64.57;5.20;;;16.10;1.00;;;;;;5072100;28;20450;-76
2022/10/24 08:32:46;;;;;;;61.47;4.70;;;16.10;1.00;;;;;;5071626;28;20459;-76
2022/10/24 08:35:18;;;;;;;63.57;5.30;;;16.30;1.00;;;;;;5071762;28;20936;-76
2022/10/24 08:37:45;;;;;;;61.97;5.10;;;16.40;1.00;;;;;;5070972;28;20471;-76
2022/10/24 08:40:16;;;;;;;63.90;4.60;;;16.50;1.00;;;;;;5071410;28;20455;-77
2022/10/24 08:42:44;;;;;;;61.73;4.60;;;16.70;1.00;;;;;;5071728;28;20483;-77
2022/10/24 08:45:16;;;;;;;63.67;5.20;;;16.90;1.00;;;;;;5071752;28;20951;-77
2022/10/24 08:47:51;;;;;;;64.70;5.13;;;16.80;1.00;;;;;;5071756;28;20481;-77
2022/10/24 08:50:25;;;;;;;61.77;4.40;;;17.00;1.00;;;;;;5071315;28;20530;-77
2022/10/24 08:53:01;;;;;;;61.30;4.80;;;17.20;1.00;;;;;;5072274;28;20455;-77
2022/10/24 08:55:35;;;;;;;65.97;4.60;;;17.40;1.00;;;;;;5075823;28;20451;-77
2022/10/24 08:58:02;;;;;;;64.20;4.77;;;17.80;1.00;;;;;;5075723;28;20456;-77
2022/10/24 09:00:41;;;;;;;60.80;4.50;;;18.00;1.00;;;;;;5075225;28;20828;-77
2022/10/24 09:03:17;;;;;;;60.87;4.40;;;18.00;1.00;;;;;;5075157;28;20490;-77
2022/10/24 09:05:49;;;;;;;65.03;4.73;;;18.10;1.00;;;;;;5075218;28;20446;-77
2022/10/24 09:08:24;;;;;;;64.77;5.57;;;18.00;1.00;;;;;;5074937;28;20463;-77
2022/10/24 09:10:55;;;;;;;63.57;5.00;;;17.90;1.00;;;;;;5074419;28;20480;-77
2022/10/24 09:13:22;;;;;;;64.80;4.90;;;18.10;1.00;;;;;;5074769;28;20455;-77
2022/10/24 09:15:50;;;;;;;62.63;4.83;;;17.90;1.00;;;;;;5075276;28;20573;-76
2022/10/24 09:18:22;;;;;;;63.70;4.70;;;17.70;1.00;;;;;;5075086;28;20459;-77
2022/10/24 09:20:53;;;;;;;65.13;4.80;;;17.90;1.00;;;;;;5074602;28;20450;-77
2022/10/24 09:23:22;;;;;;;61.87;4.47;;;17.70;1.00;;;;;;5074718;28;20493;-77
2022/10/24 09:25:53;;;;;;;62.30;4.70;;;17.90;1.00;;;;;;5074665;28;20947;-77
2022/10/24 09:28:20;;;;;;;63.30;4.90;;;17.80;1.00;;;;;;5074701;28;20522;-77
2022/10/24 09:30:48;;;;;;;61.50;4.93;;;17.80;1.00;;;;;;5074935;28;20455;-77
2022/10/24 09:33:25;;;;;;;65.13;4.40;;;17.80;1.00;;;;;;5075150;28;20443;-77
2022/10/24 09:35:59;;;;;;;67.07;5.77;;;17.60;1.00;;;;;;5075176;28;20447;-77
2022/10/24 09:38:32;;;;;;;62.20;4.80;;;17.50;1.00;;;;;;5074542;28;20451;-77
2022/10/24 09:41:03;;;;;;;67.60;5.63;;;17.70;1.00;;;;;;5074085;28;20501;-76
2022/10/24 09:43:45;;;;;;;62.30;4.87;;;18.10;1.00;;;;;;5074564;28;20520;-76
2022/10/24 09:46:15;;;;;;;62.20;4.90;;;18.20;1.00;;;;;;5074499;28;20451;-75
2022/10/24 09:48:56;;;;;;;62.30;4.30;;;18.10;1.00;;;;;;5074419;28;20542;-75
2022/10/24 09:51:33;;;;;;;62.27;4.43;;;18.10;1.00;;;;;;5074810;28;20497;-75
2022/10/24 09:54:25;;;;;;;61.37;5.10;;;18.40;1.00;;;;;;5075081;28;20474;-75
2022/10/24 09:56:56;;;;;;;59.50;4.60;;;18.70;1.00;;;;;;5071323;28;20479;-75
2022/10/24 09:59:32;;;;;;;65.50;5.43;;;18.70;1.00;;;;;;5074259;28;20443;-76
2022/10/24 10:02:25;;;;;;;61.93;4.30;;;18.50;1.00;;;;;;5074768;28;20493;-75
2022/10/24 10:05:16;;;;;;;62.97;5.67;;;18.80;1.00;;;;;;5059016;28;20455;-76
2022/10/24 10:07:49;;;;;;;62.60;5.47;;;18.80;1.00;;;;;;5074480;28;20477;-76
2022/10/24 10:10:31;;;;;;;62.73;4.93;;;18.60;1.00;;;;;;5073542;28;20451;-76
2022/10/24 10:13:17;;;;;;;62.50;4.80;;;18.40;1.00;;;;;;5074292;28;20603;-75
2022/10/24 10:15:47;;;;;;;64.80;5.20;;;18.10;1.00;;;;;;5074088;28;20443;-75
2022/10/24 10:18:25;;;;;;;64.50;4.97;;;18.40;1.00;;;;;;5073951;28;20446;-75
2022/10/24 10:21:07;;;;;;;62.90;4.93;;;18.50;1.00;;;;;;5073931;28;20450;-75
2022/10/24 10:23:38;;;;;;;62.17;4.40;;;18.40;1.00;;;;;;5073688;28;20859;-74
2022/10/24 10:26:13;;;;;;;64.93;5.30;;;17.90;1.00;;;;;;5073276;28;20482;-75
2022/10/24 10:28:48;;;;;;;68.73;5.67;;;18.10;1.00;;;;;;5073659;28;20446;-74
2022/10/24 10:31:16;;;;;;;63.30;4.53;;;18.40;1.00;;;;;;5073858;28;20446;-75
2022/10/24 10:33:54;;;;;;;63.67;4.97;;;18.20;1.00;;;;;;5073565;28;20970;-74
2022/10/24 10:36:25;;;;;;;65.03;5.03;;;18.00;1.00;;;;;;5073735;28;20471;-75
2022/10/24 10:39:14;;;;;;;62.60;4.70;;;18.10;1.00;;;;;;5073177;28;20458;-75
2022/10/24 10:41:48;;;;;;;62.23;5.17;;;18.00;1.00;;;;;;5073671;28;20447;-75
2022/10/24 10:44:27;;;;;;;66.50;4.50;;;17.80;1.00;;;;;;5074177;28;20806;-74
2022/10/24 10:47:03;;;;;;;63.63;4.30;;;17.90;1.00;;;;;;5073341;28;20467;-75
2022/10/24 10:49:32;;;;;;;65.77;5.30;;;17.90;1.00;;;;;;5073078;28;20474;-75
2022/10/24 10:52:06;;;;;;;61.47;4.27;;;17.90;1.00;;;;;;5073733;28;20448;-75
2022/10/24 10:54:58;;;;;;;60.63;4.60;;;18.00;1.00;;;;;;5072982;28;20619;-75
2022/10/24 10:57:34;;;;;;;64.17;5.03;;;18.00;1.00;;;;;;5072886;28;20467;-75
2022/10/24 11:00:08;;;;;;;61.00;4.20;;;17.90;1.00;;;;;;5072906;28;20447;-75
2022/10/24 11:03:01;;;;;;;61.23;3.90;;;17.90;1.00;;;;;;5072671;28;20489;-75
2022/10/24 11:05:40;;;;;;;63.87;4.20;;;17.90;1.00;;;;;;5070203;28;20466;-75
2022/10/24 11:08:25;;;;;;;60.37;4.40;;;17.80;1.00;;;;;;5073220;28;20454;-75
2022/10/24 11:10:57;;;;;;;60.77;4.57;;;17.80;1.00;;;;;;5072715;28;20447;-74
2022/10/24 11:13:32;;;;;;;58.63;3.77;;;17.80;1.00;;;;;;5072948;28;20974;-75
2022/10/24 11:16:04;;;;;;;60.93;3.70;;;17.80;1.00;;;;;;5073078;28;20439;-74
2022/10/24 11:18:34;;;;;;;61.33;3.67;;;17.90;1.00;;;;;;5072504;28;20451;-75
2022/10/24 11:21:06;;;;;;;61.03;3.70;;;17.90;1.00;;;;;;5072078;28;20966;-75
2022/10/24 11:23:38;;;;;;;59.53;3.80;;;18.00;1.00;;;;;;5072906;28;20819;-73
2022/10/24 11:26:10;;;;;;;59.10;3.70;;;18.00;1.00;;;;;;5072516;28;20471;-75
2022/10/24 11:28:44;;;;;;;62.40;3.70;;;18.10;1.00;;;;;;5073258;28;20825;-75
2022/10/24 11:31:14;;;;;;;59.90;3.67;;;18.10;1.00;;;;;;5072586;28;20824;-75
2022/10/24 11:33:44;;;;;;;60.47;3.63;;;18.00;1.00;;;;;;5072751;28;20527;-74
2022/10/24 11:36:17;;;;;;;61.30;3.80;;;18.10;1.00;;;;;;5072430;28;20471;-75
2022/10/24 11:38:50;;;;;;;59.93;3.80;;;18.00;1.00;;;;;;5071959;28;20454;-74
2022/10/24 11:41:37;;;;;;;65.50;3.77;;;18.10;1.00;;;;;;5072284;28;20551;-75
2022/10/24 11:44:25;;;;;;;58.40;3.17;;;18.10;1.00;;;;;;5072128;28;21029;-75
2022/10/24 11:47:00;;;;;;;59.80;3.70;;;18.20;1.00;;;;;;5072574;28;20463;-75
2022/10/24 11:49:32;;;;;;;59.50;3.10;;;18.30;1.00;;;;;;5072110;28;20625;-75
2022/10/24 11:52:05;;;;;;;58.83;3.23;;;18.20;1.00;;;;;;5072467;28;20447;-75
2022/10/24 11:54:40;;;;;;;59.33;3.30;;;18.20;1.00;;;;;;5072599;28;20531;-76
2022/10/24 11:57:13;;;;;;;60.90;4.00;;;18.20;1.00;;;;;;5072676;28;20509;-74
2022/10/24 11:59:40;;;;;;;58.90;3.57;;;18.20;1.00;;;;;;5071864;28;20866;-75
2022/10/24 12:02:45;;;;;;;60.03;3.60;;;18.20;1.00;;;;;;5072301;28;20562;-74
2022/10/24 12:05:40;;;;;;;61.30;3.53;;;18.20;1.00;;;;;;5072306;28;20472;-75
2022/10/24 12:08:27;;;;;;;60.80;3.10;;;18.30;1.00;;;;;;5066536;28;20632;-74
2022/10/24 12:11:21;;;;;;;61.17;3.30;;;18.30;1.00;;;;;;5071826;28;20512;-75
2022/10/24 12:14:12;;;;;;;59.90;3.73;;;18.30;1.00;;;;;;5072428;28;20447;-75
2022/10/24 12:16:51;;;;;;;60.40;3.90;;;18.50;1.00;;;;;;5071908;28;20475;-75
2022/10/24 12:19:21;;;;;;;60.20;3.30;;;18.60;1.00;;;;;;5071374;28;20459;-75
2022/10/24 12:21:52;;;;;;;59.30;3.60;;;18.50;1.00;;;;;;5071912;28;20944;-73
2022/10/24 12:24:24;;;;;;;62.47;4.00;;;18.40;1.00;;;;;;5072353;28;20509;-75
2022/10/24 12:26:56;;;;;;;61.80;3.63;;;18.30;1.00;;;;;;5071951;28;20573;-75
2022/10/24 12:29:26;;;;;;;58.47;3.10;;;18.30;1.00;;;;;;5071255;28;20447;-74
2022/10/24 12:31:54;;;;;;;59.67;3.27;;;18.30;1.00;;;;;;5072099;28;20447;-74
2022/10/24 12:34:41;;;;;;;59.97;3.03;;;18.30;1.00;;;;;;5071933;28;20439;-75
2022/10/24 12:37:27;;;;;;;60.73;3.93;;;18.30;1.00;;;;;;5071576;28;20459;-75
2022/10/24 12:39:54;;;;;;;66.10;3.10;;;18.30;1.00;;;;;;5071071;28;20444;-75
2022/10/24 12:42:54;;;;;;;58.60;2.90;;;18.30;1.00;;;;;;5071885;28;20828;-75
2022/10/24 12:45:29;;;;;;;58.70;3.30;;;18.40;1.00;;;;;;5071565;28;20457;-75
2022/10/24 12:48:29;;;;;;;60.10;3.50;;;18.60;1.00;;;;;;5069175;28;20467;-74
2022/10/24 12:51:02;;;;;;;58.60;3.23;;;18.50;1.00;;;;;;5037534;28;20463;-71
2022/10/24 12:53:35;;;;;;;60.20;3.50;;;18.40;1.00;;;;;;5071233;28;20919;-72
2022/10/24 12:56:15;;;;;;;61.77;3.33;;;18.50;1.00;;;;;;5071031;28;20494;-73
2022/10/24 12:58:44;;;;;;;59.17;2.90;;;18.30;1.00;;;;;;5070479;28;20455;-74
2022/10/24 13:01:24;;;;;;;61.80;3.40;;;18.40;1.00;;;;;;5071280;28;20458;-74
2022/10/24 13:04:28;;;;;;;58.90;3.23;;;18.60;1.00;;;;;;5070928;28;20514;-74
2022/10/24 13:07:15;;;;;;;58.03;3.13;;;18.70;1.00;;;;;;5070986;28;20474;-75
2022/10/24 13:09:49;;;;;;;60.57;3.27;;;19.00;1.00;;;;;;5070963;28;20789;-74